createdAt,value
2023-01-12T00:02:17.758Z,7.10
2023-01-12T00:04:45.924Z,7.00
2023-01-12T00:07:16.584Z,7.00
2023-01-12T00:09:44.635Z,7.00
2023-01-12T00:12:16.100Z,7.00
2023-01-12T00:14:44.180Z,7.00
2023-01-12T00:17:16.907Z,7.00
2023-01-12T00:19:44.852Z,7.00
2023-01-12T00:22:16.464Z,7.00
2023-01-12T00:24:47.979Z,7.00
2023-01-12T00:27:19.091Z,7.10
2023-01-12T00:29:47.747Z,7.00
2023-01-12T00:32:20.607Z,7.00
2023-01-12T00:34:48.800Z,7.00
2023-01-12T00:37:16.763Z,7.00
2023-01-12T00:39:53.140Z,7.00
2023-01-12T00:42:46.344Z,7.10
2023-01-12T00:45:23.450Z,7.10
2023-01-12T00:47:53.260Z,7.10
2023-01-12T00:50:21.259Z,7.20
2023-01-12T00:52:49.213Z,7.20
2023-01-12T00:55:17.330Z,7.20
2023-01-12T00:57:45.297Z,7.20
2023-01-12T01:00:14.816Z,7.20
2023-01-12T01:02:42.888Z,7.20
2023-01-12T01:05:12.281Z,7.20
2023-01-12T01:07:40.474Z,7.20
2023-01-12T01:10:10.515Z,7.20
2023-01-12T01:12:38.452Z,7.30
2023-01-12T01:15:07.653Z,7.30
2023-01-12T01:17:35.976Z,7.30
2023-01-12T01:20:05.045Z,7.30
2023-01-12T01:22:34.288Z,7.20
2023-01-12T01:25:02.191Z,7.30
2023-01-12T01:27:30.196Z,7.30
2023-01-12T01:29:58.120Z,7.30
2023-01-12T01:32:26.049Z,7.30
2023-01-12T01:34:54.015Z,7.30
2023-01-12T01:37:21.913Z,7.30
2023-01-12T01:39:51.147Z,7.30
2023-01-12T01:42:28.712Z,7.30
2023-01-12T01:45:00.537Z,7.30
2023-01-12T01:47:39.975Z,7.30
2023-01-12T01:50:20.725Z,7.30
2023-01-12T01:52:54.031Z,7.30
2023-01-12T01:55:27.516Z,7.30
2023-01-12T01:58:01.180Z,7.30
2023-01-12T02:00:29.722Z,7.30
2023-01-12T02:03:00.463Z,7.30
2023-01-12T02:05:29.588Z,7.30
2023-01-12T02:08:09.177Z,7.30
2023-01-12T02:10:39.771Z,7.30
2023-01-12T02:13:31.557Z,7.30
2023-01-12T02:16:21.393Z,7.30
2023-01-12T02:19:06.065Z,7.20
2023-01-12T02:22:48.108Z,7.20
2023-01-12T02:26:02.737Z,7.20
2023-01-12T02:29:19.694Z,7.10
2023-01-12T02:32:04.418Z,7.10
2023-01-12T02:34:42.437Z,7.10
2023-01-12T02:37:23.605Z,7.10
2023-01-12T02:39:59.837Z,7.10
2023-01-12T02:42:45.325Z,7.10
2023-01-12T02:45:29.548Z,7.10
2023-01-12T02:48:11.437Z,7.10
2023-01-12T02:50:48.837Z,7.10
2023-01-12T02:53:22.581Z,7.10
2023-01-12T02:55:51.591Z,7.10
2023-01-12T02:58:24.213Z,7.10
2023-01-12T03:00:57.588Z,7.10
2023-01-12T03:03:27.805Z,7.10
2023-01-12T03:05:59.586Z,7.10
2023-01-12T03:08:31.222Z,7.10
2023-01-12T03:11:12.966Z,7.10
2023-01-12T03:13:48.006Z,7.10
2023-01-12T03:16:22.010Z,7.10
2023-01-12T03:18:58.735Z,7.10
2023-01-12T03:21:33.695Z,7.10
2023-01-12T03:24:06.831Z,7.10
2023-01-12T03:26:41.143Z,7.20
2023-01-12T03:29:15.985Z,7.20
2023-01-12T03:31:44.186Z,7.20
2023-01-12T03:34:13.939Z,7.20
2023-01-12T03:36:56.427Z,7.20
2023-01-12T03:39:35.552Z,7.20
2023-01-12T03:42:10.926Z,7.20
2023-01-12T03:44:50.921Z,7.20
2023-01-12T03:47:25.759Z,7.20
2023-01-12T03:50:00.317Z,7.30
2023-01-12T03:52:31.895Z,7.30
2023-01-12T03:55:02.953Z,7.30
2023-01-12T03:57:33.199Z,7.30
2023-01-12T04:00:04.649Z,7.30
2023-01-12T04:02:41.002Z,7.30
2023-01-12T04:05:12.823Z,7.30
2023-01-12T04:07:41.217Z,7.30
2023-01-12T04:10:10.422Z,7.30
2023-01-12T04:12:38.391Z,7.30
2023-01-12T04:15:07.407Z,7.30
2023-01-12T04:17:35.312Z,7.30
2023-01-12T04:20:03.971Z,7.30
2023-01-12T04:22:44.341Z,7.30
2023-01-12T04:25:14.800Z,7.30
2023-01-12T04:27:46.290Z,7.30
2023-01-12T04:30:15.294Z,7.30
2023-01-12T04:32:44.988Z,7.30
2023-01-12T04:35:14.080Z,7.30
2023-01-12T04:37:44.273Z,7.30
2023-01-12T04:40:16.097Z,7.40
2023-01-12T04:43:02.222Z,7.40
2023-01-12T04:45:32.602Z,7.40
2023-01-12T04:48:03.808Z,7.40
2023-01-12T04:50:32.187Z,7.40
2023-01-12T04:53:03.860Z,7.40
2023-01-12T04:55:31.977Z,7.40
2023-01-12T04:57:59.909Z,7.40
2023-01-12T05:00:28.023Z,7.40
2023-01-12T05:02:58.144Z,7.40
2023-01-12T05:05:26.214Z,7.40
2023-01-12T05:08:23.060Z,7.50
2023-01-12T05:10:52.939Z,7.50
2023-01-12T05:13:21.316Z,7.50
2023-01-12T05:15:49.209Z,7.50
2023-01-12T05:18:17.144Z,7.50
2023-01-12T05:20:45.380Z,7.50
2023-01-12T05:23:13.342Z,7.50
2023-01-12T05:25:41.319Z,7.50
2023-01-12T05:28:10.545Z,7.50
2023-01-12T05:30:38.602Z,7.60
2023-01-12T05:33:06.533Z,7.60
2023-01-12T05:35:34.860Z,7.60
2023-01-12T05:38:02.776Z,7.60
2023-01-12T05:40:30.710Z,7.60
2023-01-12T05:43:16.382Z,7.50
2023-01-12T05:45:46.333Z,7.50
2023-01-12T05:48:15.344Z,7.50
2023-01-12T05:50:43.506Z,7.40
2023-01-12T05:53:11.811Z,7.40
2023-01-12T05:55:39.890Z,7.30
2023-01-12T05:58:08.220Z,7.30
2023-01-12T06:00:36.121Z,7.30
2023-01-12T06:03:05.545Z,7.30
2023-01-12T06:05:33.470Z,7.30
2023-01-12T06:08:02.767Z,7.30
2023-01-12T06:10:30.771Z,7.30
2023-01-12T06:13:16.439Z,7.30
2023-01-12T06:15:44.364Z,7.20
2023-01-12T06:18:13.668Z,7.30
2023-01-12T06:20:41.583Z,7.30
2023-01-12T06:23:09.501Z,7.30
2023-01-12T06:25:37.443Z,7.40
2023-01-12T06:28:06.947Z,7.40
2023-01-12T06:30:34.851Z,7.40
2023-01-12T06:33:03.758Z,7.40
2023-01-12T06:35:33.055Z,7.40
2023-01-12T06:38:01.015Z,7.40
2023-01-12T06:40:30.935Z,7.50
2023-01-12T06:42:57.929Z,7.50
2023-01-12T06:45:25.868Z,7.50
2023-01-12T06:47:53.820Z,7.50
2023-01-12T06:50:21.755Z,7.50
2023-01-12T06:52:50.985Z,7.40
2023-01-12T06:55:20.404Z,7.50
2023-01-12T06:57:48.317Z,7.40
2023-01-12T07:00:16.774Z,7.40
2023-01-12T07:02:44.727Z,7.50
2023-01-12T07:05:12.626Z,7.40
2023-01-12T07:07:44.156Z,7.40
2023-01-12T07:10:13.918Z,7.40
2023-01-12T07:12:42.074Z,7.40
2023-01-12T07:15:11.059Z,7.40
2023-01-12T07:17:39.373Z,7.40
2023-01-12T07:20:08.735Z,7.50
2023-01-12T07:22:36.652Z,7.50
2023-01-12T07:25:06.232Z,7.50
2023-01-12T07:27:35.466Z,7.50
2023-01-12T07:30:03.414Z,7.50
2023-01-12T07:32:31.447Z,7.60
2023-01-12T07:34:59.378Z,7.60
2023-01-12T07:37:27.340Z,7.60
2023-01-12T07:39:57.115Z,7.60
2023-01-12T07:42:26.989Z,7.70
2023-01-12T07:44:56.366Z,7.70
2023-01-12T07:47:25.135Z,7.80
2023-01-12T07:49:53.013Z,7.80
2023-01-12T07:52:20.911Z,7.80
2023-01-12T07:54:48.964Z,7.80
2023-01-12T07:57:17.146Z,7.80
2023-01-12T07:59:45.153Z,7.80
2023-01-12T08:02:16.960Z,7.80
2023-01-12T08:04:45.343Z,7.80
2023-01-12T08:07:14.757Z,7.80
2023-01-12T08:09:42.731Z,7.90
2023-01-12T08:12:10.669Z,7.90
2023-01-12T08:14:41.279Z,7.90
2023-01-12T08:17:18.244Z,7.90
2023-01-12T08:19:54.673Z,7.90
2023-01-12T08:22:28.792Z,7.90
2023-01-12T08:25:04.919Z,7.90
2023-01-12T08:27:36.977Z,7.90
2023-01-12T08:30:08.659Z,7.90
2023-01-12T08:32:39.017Z,7.90
2023-01-12T08:35:08.646Z,7.90
2023-01-12T08:37:36.834Z,7.90
2023-01-12T08:40:07.253Z,7.90
2023-01-12T08:42:35.343Z,7.90
2023-01-12T08:45:03.255Z,7.90
2023-01-12T08:47:31.165Z,7.90
2023-01-12T08:50:01.697Z,7.80
2023-01-12T08:52:31.673Z,7.80
2023-01-12T08:54:59.695Z,7.80
2023-01-12T08:57:27.870Z,7.80
2023-01-12T08:59:55.852Z,7.80
2023-01-12T09:02:25.253Z,7.80
2023-01-12T09:04:53.278Z,7.80
2023-01-12T09:07:22.598Z,7.80
2023-01-12T09:09:51.121Z,7.80
2023-01-12T09:12:20.112Z,7.80
2023-01-12T09:14:47.980Z,7.80
2023-01-12T09:17:16.012Z,7.80
2023-01-12T09:19:49.823Z,7.80
2023-01-12T09:22:18.765Z,7.80
2023-01-12T09:24:47.964Z,7.80
2023-01-12T09:27:15.868Z,7.80
2023-01-12T09:29:43.758Z,7.80
2023-01-12T09:32:11.699Z,7.80
2023-01-12T09:34:40.630Z,7.70
2023-01-12T09:37:08.545Z,7.70
2023-01-12T09:39:36.494Z,7.70
2023-01-12T09:42:31.949Z,7.70
2023-01-12T09:45:17.514Z,7.70
2023-01-12T09:47:55.301Z,7.70
2023-01-12T09:50:28.144Z,7.70
2023-01-12T09:53:03.095Z,7.70
2023-01-12T09:55:39.951Z,7.70
2023-01-12T09:58:35.729Z,7.70
2023-01-12T10:01:20.467Z,7.70
2023-01-12T10:03:52.553Z,7.70
2023-01-12T10:06:22.090Z,7.70
2023-01-12T10:08:55.089Z,7.70
2023-01-12T10:11:31.291Z,7.70
2023-01-12T10:14:52.958Z,7.70
2023-01-12T10:17:41.931Z,7.70
2023-01-12T10:20:24.962Z,7.70
2023-01-12T10:22:57.756Z,7.70
2023-01-12T10:25:35.845Z,7.70
2023-01-12T10:28:09.867Z,7.70
2023-01-12T10:30:41.536Z,7.70
2023-01-12T10:33:16.266Z,7.70
2023-01-12T10:35:58.656Z,7.70
2023-01-12T10:38:31.376Z,7.80
2023-01-12T10:41:22.346Z,7.80
2023-01-12T10:44:13.751Z,7.80
2023-01-12T10:46:43.286Z,7.80
2023-01-12T10:49:20.101Z,7.80
2023-01-12T10:51:57.733Z,7.80
2023-01-12T10:54:28.735Z,7.80
2023-01-12T10:57:03.824Z,7.80
2023-01-12T10:59:34.664Z,7.80
2023-01-12T11:02:17.063Z,7.80
2023-01-12T11:04:48.894Z,7.80
2023-01-12T11:07:19.442Z,7.80
2023-01-12T11:09:47.653Z,7.80
2023-01-12T11:12:29.433Z,7.80
2023-01-12T11:15:04.366Z,7.80
2023-01-12T11:17:55.729Z,7.80
2023-01-12T11:20:32.484Z,7.80
2023-01-12T11:23:04.825Z,7.80
2023-01-12T11:25:40.065Z,7.80
2023-01-12T11:28:16.678Z,7.90
2023-01-12T11:30:51.705Z,7.90
2023-01-12T11:33:28.127Z,7.90
2023-01-12T11:36:04.080Z,7.90
2023-01-12T11:38:40.928Z,7.90
2023-01-12T11:41:19.050Z,7.90
2023-01-12T11:43:59.048Z,7.90
2023-01-12T11:46:35.707Z,7.90
2023-01-12T11:49:15.637Z,7.90
2023-01-12T11:51:44.415Z,7.90
2023-01-12T11:54:18.653Z,7.90
2023-01-12T11:57:13.221Z,7.90
2023-01-12T11:59:58.929Z,7.90
2023-01-12T12:02:37.913Z,7.90
2023-01-12T12:05:26.673Z,7.90
2023-01-12T12:08:11.405Z,7.80
2023-01-12T12:10:51.084Z,7.80
2023-01-12T12:13:30.608Z,7.80
2023-01-12T12:16:17.553Z,7.90
2023-01-12T12:19:10.048Z,7.90
2023-01-12T12:21:50.383Z,7.90
2023-01-12T12:24:50.848Z,8.00
2023-01-12T12:27:36.502Z,8.00
2023-01-12T12:30:55.785Z,8.00
2023-01-12T12:33:47.622Z,8.00
2023-01-12T12:36:27.885Z,8.10
2023-01-12T12:39:34.803Z,8.10
2023-01-12T12:42:35.987Z,8.10
2023-01-12T12:45:23.315Z,8.10
2023-01-12T12:48:04.597Z,8.10
2023-01-12T12:50:37.848Z,8.20
2023-01-12T12:53:20.912Z,8.20
2023-01-12T12:55:53.155Z,8.20
2023-01-12T12:58:43.377Z,8.10
2023-01-12T13:01:58.296Z,8.10
2023-01-12T13:05:07.810Z,8.20
2023-01-12T13:07:45.358Z,8.20
2023-01-12T13:10:32.606Z,8.20
2023-01-12T13:13:26.226Z,8.20
2023-01-12T13:16:47.799Z,8.20
2023-01-12T13:19:36.784Z,8.20
2023-01-12T13:22:32.215Z,8.20
2023-01-12T13:25:02.569Z,8.20
2023-01-12T13:27:55.488Z,8.20
2023-01-12T13:30:42.030Z,8.30
2023-01-12T13:33:24.886Z,8.30
2023-01-12T13:36:11.860Z,8.30
2023-01-12T13:39:08.518Z,8.40
2023-01-12T13:41:56.057Z,8.40
2023-01-12T13:44:31.561Z,8.40
2023-01-12T13:47:10.809Z,8.40
2023-01-12T13:49:50.347Z,8.40
2023-01-12T13:52:28.869Z,8.40
2023-01-12T13:54:57.320Z,8.50
2023-01-12T13:57:28.637Z,8.40
2023-01-12T14:00:04.592Z,8.40
2023-01-12T14:02:42.522Z,8.40
2023-01-12T14:05:30.149Z,8.40
2023-01-12T14:08:15.757Z,8.50
2023-01-12T14:10:54.506Z,8.50
2023-01-12T14:13:53.718Z,8.50
2023-01-12T14:16:39.468Z,8.50
2023-01-12T14:19:28.967Z,8.50
2023-01-12T14:21:59.981Z,8.50
2023-01-12T14:24:27.972Z,8.50
2023-01-12T14:26:58.236Z,8.50
2023-01-12T14:29:26.295Z,8.50
2023-01-12T14:31:55.415Z,8.50
2023-01-12T14:34:32.399Z,8.50
2023-01-12T14:37:01.409Z,8.50
2023-01-12T14:39:36.811Z,8.50
2023-01-12T14:42:31.111Z,8.50
2023-01-12T14:45:16.870Z,8.40
2023-01-12T14:47:44.846Z,8.50
2023-01-12T14:50:23.066Z,8.40
2023-01-12T14:52:53.453Z,8.40
2023-01-12T14:55:38.648Z,8.40
2023-01-12T14:58:16.522Z,8.40
2023-01-12T15:00:44.965Z,8.40
2023-01-12T15:03:28.846Z,8.50
2023-01-12T15:06:05.046Z,8.50
2023-01-12T15:08:32.954Z,8.50
2023-01-12T15:11:08.599Z,8.50
2023-01-12T15:13:38.598Z,8.50
2023-01-12T15:16:25.198Z,8.50
2023-01-12T15:19:10.590Z,8.50
2023-01-12T15:21:59.737Z,8.50
2023-01-12T15:24:48.551Z,8.60
2023-01-12T15:27:18.581Z,8.50
2023-01-12T15:29:47.630Z,8.60
2023-01-12T15:32:23.188Z,8.60
2023-01-12T15:34:54.717Z,8.60
2023-01-12T15:37:24.392Z,8.60
2023-01-12T15:39:52.793Z,8.60
2023-01-12T15:42:22.392Z,8.60
2023-01-12T15:44:53.753Z,8.60
2023-01-12T15:47:22.564Z,8.60
2023-01-12T15:49:53.297Z,8.60
2023-01-12T15:52:25.810Z,8.60
2023-01-12T15:54:54.000Z,8.60
2023-01-12T15:57:22.587Z,8.60
2023-01-12T15:59:50.535Z,8.70
2023-01-12T16:02:30.599Z,8.70
2023-01-12T16:04:58.757Z,8.70
2023-01-12T16:07:28.363Z,8.70
2023-01-12T16:09:56.735Z,8.70
2023-01-12T16:12:26.117Z,8.70
2023-01-12T16:14:54.181Z,8.70
2023-01-12T16:17:22.200Z,8.70
2023-01-12T16:19:50.205Z,8.70
2023-01-12T16:22:26.307Z,8.70
2023-01-12T16:24:57.636Z,8.70
2023-01-12T16:27:27.758Z,8.70
2023-01-12T16:29:56.068Z,8.70
2023-01-12T16:32:26.241Z,8.70
2023-01-12T16:34:54.644Z,8.70
2023-01-12T16:37:26.699Z,8.70
2023-01-12T16:39:56.628Z,8.70
2023-01-12T16:42:24.718Z,8.70
2023-01-12T16:44:52.715Z,8.70
2023-01-12T16:47:21.652Z,8.70
2023-01-12T16:49:51.546Z,8.70
2023-01-12T16:52:22.920Z,8.70
2023-01-12T16:54:50.876Z,8.70
2023-01-12T16:57:20.452Z,8.70
2023-01-12T16:59:49.604Z,8.70
2023-01-12T17:02:19.963Z,8.70
2023-01-12T17:04:51.981Z,8.70
2023-01-12T17:07:20.286Z,8.70
2023-01-12T17:09:49.383Z,8.60
2023-01-12T17:12:19.680Z,8.60
2023-01-12T17:14:48.084Z,8.50
2023-01-12T17:17:16.233Z,8.50
2023-01-12T17:19:45.167Z,8.50
2023-01-12T17:22:17.814Z,8.50
2023-01-12T17:24:45.873Z,8.50
2023-01-12T17:27:14.213Z,8.50
2023-01-12T17:29:43.986Z,8.40
2023-01-12T17:32:12.140Z,8.40
2023-01-12T17:34:43.210Z,8.40
2023-01-12T17:37:11.574Z,8.40
2023-01-12T17:39:42.987Z,8.40
2023-01-12T17:42:31.838Z,8.40
2023-01-12T17:45:01.702Z,8.40
2023-01-12T17:47:30.027Z,8.40
2023-01-12T17:49:57.998Z,8.40
2023-01-12T17:52:26.189Z,8.40
2023-01-12T17:54:54.355Z,8.40
2023-01-12T17:57:22.357Z,8.40
2023-01-12T17:59:51.975Z,8.40
2023-01-12T18:02:21.301Z,8.40
2023-01-12T18:04:49.396Z,8.40
2023-01-12T18:07:17.365Z,8.40
2023-01-12T18:09:45.325Z,8.40
2023-01-12T18:12:13.418Z,8.40
2023-01-12T18:14:42.631Z,8.40
2023-01-12T18:17:11.156Z,8.40
2023-01-12T18:19:42.361Z,8.40
2023-01-12T18:22:10.864Z,8.40
2023-01-12T18:24:38.957Z,8.30
2023-01-12T18:27:06.916Z,8.30
2023-01-12T18:29:35.084Z,8.30
2023-01-12T18:32:03.059Z,8.30
2023-01-12T18:34:31.112Z,8.30
2023-01-12T18:37:00.471Z,8.30
2023-01-12T18:39:28.401Z,8.30
2023-01-12T18:42:14.194Z,8.30
2023-01-12T18:44:42.312Z,8.30
2023-01-12T18:47:34.252Z,8.30
2023-01-12T18:50:32.076Z,8.20
2023-01-12T18:53:18.629Z,8.20
2023-01-12T18:55:46.994Z,8.30
2023-01-12T18:58:15.122Z,8.30
2023-01-12T19:00:43.141Z,8.20
2023-01-12T19:03:12.010Z,8.30
2023-01-12T19:05:47.390Z,8.30
2023-01-12T19:08:36.198Z,8.30
2023-01-12T19:11:12.104Z,8.30
2023-01-12T19:13:57.995Z,8.30
2023-01-12T19:16:43.562Z,8.30
2023-01-12T19:19:11.852Z,8.40
2023-01-12T19:21:53.809Z,8.30
2023-01-12T19:24:41.169Z,8.40
2023-01-12T19:27:30.605Z,8.40
2023-01-12T19:29:58.890Z,8.40
2023-01-12T19:32:26.839Z,8.40
2023-01-12T19:35:02.346Z,8.50
2023-01-12T19:37:34.100Z,8.40
2023-01-12T19:40:07.635Z,8.50
2023-01-12T19:42:53.198Z,8.50
2023-01-12T19:45:21.207Z,8.60
2023-01-12T19:47:50.797Z,8.70
2023-01-12T19:50:19.012Z,8.70
2023-01-12T19:52:47.159Z,8.70
2023-01-12T19:55:16.460Z,8.80
2023-01-12T19:57:44.390Z,8.80
2023-01-12T20:00:16.744Z,8.80
2023-01-12T20:02:45.719Z,8.80
2023-01-12T20:05:21.932Z,8.80
2023-01-12T20:07:52.609Z,8.80
2023-01-12T20:10:24.746Z,8.90
2023-01-12T20:12:52.848Z,8.90
2023-01-12T20:15:21.640Z,8.90
2023-01-12T20:17:50.629Z,8.90
2023-01-12T20:20:19.817Z,8.90
2023-01-12T20:22:51.241Z,8.80
2023-01-12T20:25:19.895Z,8.80
2023-01-12T20:27:52.737Z,8.80
2023-01-12T20:30:37.008Z,8.80
2023-01-12T20:33:06.460Z,8.80
2023-01-12T20:35:35.349Z,8.80
2023-01-12T20:38:06.949Z,8.70
2023-01-12T20:40:35.382Z,8.70
2023-01-12T20:43:04.739Z,8.70
2023-01-12T20:45:32.938Z,8.70
2023-01-12T20:48:00.948Z,8.60
2023-01-12T20:50:29.470Z,8.70
2023-01-12T20:52:57.939Z,8.70
2023-01-12T20:55:26.718Z,8.70
2023-01-12T20:57:54.895Z,8.70
2023-01-12T21:00:26.608Z,8.70
2023-01-12T21:02:55.562Z,8.70
2023-01-12T21:05:23.809Z,8.70
2023-01-12T21:07:56.966Z,8.70
2023-01-12T21:10:31.554Z,8.70
2023-01-12T21:12:59.598Z,8.60
2023-01-12T21:15:28.945Z,8.60
2023-01-12T21:17:56.869Z,8.60
2023-01-12T21:20:25.209Z,8.60
2023-01-12T21:22:53.323Z,8.60
2023-01-12T21:25:22.518Z,8.60
2023-01-12T21:27:50.447Z,8.60
2023-01-12T21:30:19.056Z,8.60
2023-01-12T21:32:48.649Z,8.60
2023-01-12T21:35:17.907Z,8.60
2023-01-12T21:37:45.945Z,8.60
2023-01-12T21:40:16.617Z,8.70
2023-01-12T21:43:07.459Z,8.70
2023-01-12T21:45:36.684Z,8.80
2023-01-12T21:48:06.792Z,8.80
2023-01-12T21:50:36.052Z,8.90
2023-01-12T21:53:08.185Z,8.90
2023-01-12T21:55:36.354Z,8.90
2023-01-12T21:58:04.351Z,9.00
2023-01-12T22:00:32.881Z,9.00
2023-01-12T22:03:00.949Z,9.00
2023-01-12T22:05:30.373Z,9.00
2023-01-12T22:07:58.565Z,9.00
2023-01-12T22:10:30.394Z,9.00
2023-01-12T22:13:02.705Z,9.10
2023-01-12T22:15:31.230Z,9.10
2023-01-12T22:18:00.187Z,9.10
2023-01-12T22:20:30.015Z,9.10
2023-01-12T22:22:57.936Z,9.10
2023-01-12T22:25:26.158Z,9.10
2023-01-12T22:27:54.559Z,9.10
2023-01-12T22:30:25.117Z,9.10
2023-01-12T22:32:55.608Z,9.10
2023-01-12T22:35:26.374Z,9.10
2023-01-12T22:37:55.787Z,9.10
2023-01-12T22:40:23.825Z,9.10
2023-01-12T22:43:09.400Z,9.10
2023-01-12T22:45:37.656Z,9.00
2023-01-12T22:48:06.607Z,9.00
2023-01-12T22:50:34.590Z,9.10
2023-01-12T22:53:03.849Z,9.00
2023-01-12T22:55:31.850Z,9.00
2023-01-12T22:58:01.571Z,9.00
2023-01-12T23:00:29.693Z,9.00
2023-01-12T23:03:03.473Z,9.00
2023-01-12T23:05:36.182Z,9.00
2023-01-12T23:08:07.820Z,9.00
2023-01-12T23:10:36.469Z,9.00
2023-01-12T23:13:17.847Z,8.90
2023-01-12T23:15:49.623Z,8.90
2023-01-12T23:18:20.761Z,8.90
2023-01-12T23:20:51.041Z,8.80
2023-01-12T23:23:20.496Z,8.80
2023-01-12T23:25:48.936Z,8.90
2023-01-12T23:28:17.461Z,8.90
2023-01-12T23:30:46.056Z,8.90
2023-01-12T23:33:14.069Z,9.00
2023-01-12T23:35:43.836Z,9.00
2023-01-12T23:38:17.109Z,9.00
2023-01-12T23:40:46.429Z,9.00
2023-01-12T23:43:14.458Z,9.00
2023-01-12T23:45:42.528Z,9.10
2023-01-12T23:48:10.653Z,9.10
2023-01-12T23:50:38.750Z,9.10
2023-01-12T23:53:06.893Z,9.10
2023-01-12T23:55:35.084Z,9.10
2023-01-12T23:58:05.995Z,9.10
